Wabanaki — WDG9870 — position and weather

sailwx.info

Track history (hours):
 
Tides and Currents Weather Stations Pressure Air Temp Water Temp Dewpoint Dewpoint Depression Visibility Wind Speed Wind Dir Waves Ship Positions

Wabanaki

Owner: Casco Bay Island Transit District, Portland, ME. More information available from US FCC via Universal Licensing System and Coast Guard Vessel Documentation Center.

Last reported at 2018-Jun-21 22:12 UTC. Time now 2018-Jun-22 16:51 UTC.
Position N 43°40' W 070°14'.

Type: Passenger vessel. MMSI: 367591990.

Date/timePositionNaut miles runAvg speedWind from/ knotsBaromVisibWave heightAir tempDewpointWater temp
2018-Jun-21 22:12N 43°40' W 070°14'2 9.8
2018-Jun-21 22:00N 43°41' W 070°11'1 0.2
2018-Jun-21 17:47N 43°41' W 070°11'3 2.8
2018-Jun-21 16:41N 43°39' W 070°15'2 8.3
2018-Jun-21 16:29N 43°40' W 070°13'3 5.4
2018-Jun-21 16:01N 43°42' W 070°10'1 2.2
2018-Jun-21 15:31N 43°41' W 070°11'3 1.4
2018-Jun-21 13:01N 43°42' W 070°07'0 0.0
2018-Jun-21 12:59N 43°42' W 070°07'2 4.7
2018-Jun-21 12:31N 43°42' W 070°10'3 5.9
2018-Jun-21 12:01N 43°40' W 070°13'2 3.4
2018-Jun-21 11:30N 43°39' W 070°15'0 0.0
2018-Jun-21 11:01N 43°39' W 070°15'3 5.7
2018-Jun-21 10:29N 43°41' W 070°11'1 1.9
2018-Jun-21 10:00N 43°42' W 070°11'4 7.8
2018-Jun-21 09:30N 43°39' W 070°15'0 0.0
2018-Jun-20 21:08N 43°39' W 070°15'0 0.1
2018-Jun-20 20:58N 43°39' W 070°15'2 5.4
2018-Jun-20 20:30N 43°40' W 070°12'0 0.0
2018-Jun-20 19:42N 43°40' W 070°12'1 3.9
2018-Jun-20 19:30N 43°40' W 070°13'2 3.5
2018-Jun-20 19:00N 43°39' W 070°15'0 0.0
2018-Jun-20 16:44N 43°39' W 070°15'2 8.0
2018-Jun-20 16:30N 43°40' W 070°13'3 5.2
2018-Jun-20 16:01N 43°42' W 070°10'1 2.2
2018-Jun-20 15:30N 43°41' W 070°11'3 6.2
2018-Jun-20 15:00N 43°39' W 070°15'0 0.0
2018-Jun-20 14:30N 43°39' W 070°15'2 4.6
2018-Jun-20 14:00N 43°40' W 070°12'3 6.8
2018-Jun-20 13:30N 43°43' W 070°08'1 3.0
2018-Jun-20 13:00N 43°42' W 070°07'2 4.6
2018-Jun-20 12:30N 43°42' W 070°10'3 5.4
2018-Jun-20 12:00N 43°40' W 070°13'2 3.3
2018-Jun-20 11:30N 43°39' W 070°15'0 0.0
2018-Jun-20 04:17N 43°39' W 070°15'2 5.7
2018-Jun-20 04:01N 43°40' W 070°13'2 3.2
2018-Jun-20 03:31N 43°39' W 070°15'1 2.9
2018-Jun-20 03:00N 43°40' W 070°13'1 2.9
2018-Jun-20 02:30N 43°39' W 070°15'0 0.5
2018-Jun-20 02:00N 43°39' W 070°15'1 2.6
2018-Jun-20 01:30N 43°39' W 070°13'2 3.1
2018-Jun-20 01:01N 43°39' W 070°15'2 3.8
2018-Jun-20 00:30N 43°39' W 070°12'2 3.8
2018-Jun-20 00:00N 43°39' W 070°15'2 3.7
2018-Jun-19 23:30N 43°39' W 070°12'2 3.7
2018-Jun-19 23:01N 43°39' W 070°15'0 0.0
2018-Jun-19 22:30N 43°39' W 070°15'0 0.0
2018-Jun-19 22:00N 43°39' W 070°15'0 0.0
2018-Jun-19 21:30N 43°39' W 070°15'0 0.0
2018-Jun-19 21:01N 43°39' W 070°15'3 5.3
2018-Jun-19 20:31N 43°40' W 070°12'1 1.3
2018-Jun-19 20:01N 43°41' W 070°11'2 3.5
2018-Jun-19 19:30N 43°40' W 070°13'2 3.0
2018-Jun-19 19:00N 43°39' W 070°15'2 4.9
2018-Jun-19 18:31N 43°40' W 070°12'1 1.6
2018-Jun-19 18:01N 43°41' W 070°11'2 3.5
2018-Jun-19 17:30N 43°40' W 070°13'1 3.0
2018-Jun-19 17:00N 43°39' W 070°15'2 3.8
2018-Jun-19 16:30N 43°40' W 070°12'2 3.7
2018-Jun-19 16:00N 43°41' W 070°11'1 2.7
2018-Jun-19 15:31N 43°40' W 070°12'2 4.5
2018-Jun-19 15:00N 43°39' W 070°15'0 0.0
2018-Jun-19 14:31N 43°39' W 070°15'2 4.6
2018-Jun-19 14:00N 43°40' W 070°12'3 6.7
2018-Jun-19 13:31N 43°42' W 070°09'2 3.2
2018-Jun-19 13:00N 43°42' W 070°07'2 3.8
2018-Jun-19 12:30N 43°42' W 070°09'3 7.0
2018-Jun-19 12:01N 43°40' W 070°13'2 3.4
2018-Jun-19 11:30N 43°39' W 070°15'0 0.0
2018-Jun-19 04:12N 43°39' W 070°15'1 5.5
2018-Jun-19 04:00N 43°39' W 070°13'1 2.1
2018-Jun-19 03:30N 43°39' W 070°15'2 3.2
2018-Jun-19 03:00N 43°39' W 070°13'2 3.1
2018-Jun-19 02:30N 43°39' W 070°15'0 0.0
2018-Jun-19 02:00N 43°39' W 070°15'2 3.8
2018-Jun-19 01:30N 43°39' W 070°12'2 3.8
2018-Jun-19 01:00N 43°39' W 070°15'2 3.8
2018-Jun-19 00:30N 43°39' W 070°12'2 3.8
2018-Jun-19 00:00N 43°39' W 070°15'1 3.0
2018-Jun-18 23:30N 43°39' W 070°13'1 3.0
2018-Jun-18 23:00N 43°39' W 070°15'0 0.0
2018-Jun-18 21:07N 43°39' W 070°15'0 0.2
2018-Jun-18 21:00N 43°39' W 070°15'2 1.9
2018-Jun-18 19:44N 43°40' W 070°12'1 3.1
2018-Jun-18 19:30N 43°40' W 070°13'2 3.5
2018-Jun-18 19:00N 43°39' W 070°15'2 4.6
2018-Jun-18 18:30N 43°40' W 070°12'1 1.9
2018-Jun-18 18:01N 43°41' W 070°11'2 3.1
2018-Jun-18 17:31N 43°40' W 070°13'2 3.5
2018-Jun-18 17:01N 43°39' W 070°15'0 0.0
2018-Jun-17 21:11N 43°39' W 070°15'0 0.1
2018-Jun-17 21:00N 43°39' W 070°15'2 4.9
2018-Jun-17 20:30N 43°40' W 070°12'1 2.7
2018-Jun-17 20:00N 43°41' W 070°11'2 4.3
2018-Jun-17 19:30N 43°40' W 070°13'2 3.4
2018-Jun-17 19:00N 43°39' W 070°15'2 4.5
2018-Jun-17 18:30N 43°40' W 070°12'2 3.3
2018-Jun-17 18:00N 43°41' W 070°10'2 4.5
2018-Jun-17 17:30N 43°40' W 070°13'2 3.5
2018-Jun-17 17:00N 43°39' W 070°15'2 3.5
2018-Jun-17 16:30N 43°40' W 070°13'3 5.2
2018-Jun-17 16:00N 43°42' W 070°10'1 2.1
2018-Jun-17 15:30N 43°41' W 070°11'3 6.3
2018-Jun-17 15:00N 43°39' W 070°15'0 0.0
2018-Jun-17 14:30N 43°39' W 070°15'0 0.0
2018-Jun-17 14:00N 43°39' W 070°15'0 0.0
2018-Jun-17 13:30N 43°39' W 070°15'0 0.0
2018-Jun-17 13:00N 43°39' W 070°15'4 7.2
2018-Jun-17 12:30N 43°41' W 070°11'3 5.9
2018-Jun-17 12:00N 43°42' W 070°07'2 3.3
2018-Jun-17 11:30N 43°42' W 070°09'3 6.3
2018-Jun-17 11:00N 43°40' W 070°12'2 4.8
2018-Jun-17 10:30N 43°39' W 070°15'0 0.0
2018-Jun-17 01:57N 43°39' W 070°15'2 4.8
2018-Jun-17 01:30N 43°40' W 070°12'2 4.3
2018-Jun-17 01:01N 43°42' W 070°10'1 1.6
2018-Jun-17 00:30N 43°41' W 070°11'2 4.1
2018-Jun-17 00:01N 43°40' W 070°13'2 3.2
2018-Jun-16 23:31N 43°39' W 070°15'0 0.4
2018-Jun-16 23:01N 43°39' W 070°15'3 5.8
2018-Jun-16 22:31N 43°41' W 070°11'2 3.1
2018-Jun-16 22:01N 43°40' W 070°13'2 3.4
2018-Jun-16 21:31N 43°39' W 070°15'4 8.3
2018-Jun-16 21:00N 43°42' W 070°10'2 4.7
2018-Jun-16 20:30N 43°40' W 070°12'2 1.7
2018-Jun-16 19:23N 43°39' W 070°15'2 5.0
2018-Jun-16 19:00N 43°39' W 070°12'2 3.6
2018-Jun-16 18:29N 43°39' W 070°15'0 0.0
2018-Jun-16 18:00N 43°39' W 070°15'0 0.0
2018-Jun-16 13:36N 43°39' W 070°15'0 0.2
2018-Jun-16 13:30N 43°39' W 070°15'2 4.5
2018-Jun-16 13:00N 43°40' W 070°12'2 4.0
2018-Jun-16 12:30N 43°42' W 070°10'2 4.7
2018-Jun-16 12:00N 43°42' W 070°07'2 4.4
2018-Jun-16 11:30N 43°42' W 070°10'2 4.4
2018-Jun-16 11:00N 43°40' W 070°12'3 5.0
2018-Jun-16 10:30N 43°39' W 070°15'0 0.0
2018-Jun-16 02:53N 43°39' W 070°15'2 4.5
2018-Jun-16 02:30N 43°40' W 070°13'2 4.8
2018-Jun-16 02:01N 43°41' W 070°10'1 1.6
2018-Jun-16 01:31N 43°41' W 070°11'3 6.3
2018-Jun-16 01:01N 43°39' W 070°15'3 5.5
2018-Jun-16 00:30N 43°41' W 070°11'1 2.9
2018-Jun-16 00:01N 43°42' W 070°10'3 5.1
2018-Jun-15 23:30N 43°40' W 070°13'2 3.4
2018-Jun-15 23:00N 43°39' W 070°15'3 6.0
2018-Jun-15 22:31N 43°41' W 070°11'2 3.2
2018-Jun-15 22:01N 43°40' W 070°13'1 2.9
2018-Jun-15 21:30N 43°39' W 070°15'4 8.0
2018-Jun-15 21:01N 43°42' W 070°10'2 4.4
2018-Jun-15 20:30N 43°40' W 070°12'2 4.2
2018-Jun-15 20:00N 43°39' W 070°15'0 0.0
2018-Jun-15 19:30N 43°39' W 070°15'0 0.0
2018-Jun-15 19:00N 43°39' W 070°15'0 0.0
2018-Jun-15 18:30N 43°39' W 070°15'0 0.0
2018-Jun-15 18:01N 43°39' W 070°15'1 1.0
2018-Jun-15 17:31N 43°40' W 070°14'2 3.3
2018-Jun-15 17:00N 43°39' W 070°12'0 0.0
2018-Jun-15 16:31N 43°39' W 070°12'0 0.0
2018-Jun-15 16:01N 43°39' W 070°12'2 3.4
2018-Jun-15 15:31N 43°38' W 070°12'2 4.7
2018-Jun-15 15:01N 43°39' W 070°15'0 0.6
2018-Jun-15 14:30N 43°39' W 070°15'0 0.3
2018-Jun-15 14:00N 43°39' W 070°15'0 0.0
2018-Jun-15 02:09N 43°39' W 070°15'0 0.1
2018-Jun-15 02:00N 43°39' W 070°15'0 0.0
2018-Jun-15 01:30N 43°39' W 070°15'1 2.5
2018-Jun-15 01:00N 43°39' W 070°16'2 3.3
2018-Jun-15 00:30N 43°40' W 070°14'3 5.6
2018-Jun-15 00:00N 43°41' W 070°11'2 4.8
2018-Jun-14 23:30N 43°39' W 070°12'1 1.5
2018-Jun-14 23:00N 43°39' W 070°13'2 3.2
2018-Jun-14 22:30N 43°39' W 070°15'0 0.0
2018-Jun-14 22:00N 43°39' W 070°15'0 0.0
2018-Jun-14 21:30N 43°39' W 070°15'0 0.0
2018-Jun-14 21:00N 43°39' W 070°15'0 0.0
2018-Jun-14 20:30N 43°39' W 070°15'0 0.0
2018-Jun-14 20:00N 43°39' W 070°15'0 0.0
2018-Jun-14 19:30N 43°39' W 070°15'0 0.0
2018-Jun-14 19:00N 43°39' W 070°15'0 0.0
2018-Jun-14 18:30N 43°39' W 070°15'0 0.0
2018-Jun-14 18:00N 43°39' W 070°15'0 0.0
2018-Jun-14 17:30N 43°39' W 070°15'0 0.0
2018-Jun-14 17:00N 43°39' W 070°15'1 2.4
2018-Jun-14 16:30N 43°40' W 070°13'3 6.2
2018-Jun-14 16:00N 43°42' W 070°10'1 2.2
2018-Jun-14 15:30N 43°41' W 070°11'3 6.2
2018-Jun-14 15:00N 43°39' W 070°15'0 0.0
2018-Jun-14 14:30N 43°39' W 070°15'0 0.0
2018-Jun-14 14:00N 43°39' W 070°15'0 0.0
2018-Jun-14 13:30N 43°39' W 070°15'2 4.5
2018-Jun-14 13:00N 43°40' W 070°12'1 2.5
2018-Jun-14 12:30N 43°41' W 070°11'2 3.7
2018-Jun-14 12:00N 43°40' W 070°13'2 3.4
2018-Jun-14 11:30N 43°39' W 070°15'2 4.1
2018-Jun-14 11:00N 43°39' W 070°12'2 4.0
2018-Jun-14 10:30N 43°39' W 070°15'2 3.9
2018-Jun-14 10:00N 43°39' W 070°12'2 0.3
2018-Jun-14 03:13N 43°39' W 070°15'1 5.5
2018-Jun-14 03:00N 43°40' W 070°13'1 2.3
2018-Jun-14 02:30N 43°39' W 070°15'0 0.0
2018-Jun-14 02:00N 43°39' W 070°15'2 4.0
2018-Jun-14 01:30N 43°39' W 070°12'2 3.4
2018-Jun-14 01:00N 43°40' W 070°14'1 2.2
2018-Jun-14 00:30N 43°39' W 070°13'1 2.9
2018-Jun-14 00:00N 43°39' W 070°15'2 3.5
2018-Jun-13 23:30N 43°39' W 070°12'2 3.5
2018-Jun-13 23:00N 43°39' W 070°15'0 0.0
2018-Jun-13 02:49N 43°39' W 070°15'2 5.3
2018-Jun-13 02:30N 43°40' W 070°13'3 5.5
2018-Jun-13 02:00N 43°42' W 070°10'1 2.0
2018-Jun-13 01:30N 43°41' W 070°11'3 6.6
2018-Jun-13 01:00N 43°39' W 070°15'2 3.3
2018-Jun-13 00:30N 43°40' W 070°13'3 5.4
2018-Jun-13 00:00N 43°42' W 070°10'3 5.0
2018-Jun-12 23:30N 43°40' W 070°12'2 3.6
2018-Jun-12 23:00N 43°39' W 070°15'3 6.0
2018-Jun-12 22:31N 43°41' W 070°11'2 3.5
2018-Jun-12 22:00N 43°40' W 070°13'0 0.1
2018-Jun-12 21:30N 43°40' W 070°13'3 5.7
2018-Jun-12 21:00N 43°42' W 070°10'2 4.4
2018-Jun-12 20:30N 43°40' W 070°12'2 4.2
2018-Jun-12 20:00N 43°39' W 070°15'0 0.0
2018-Jun-12 16:55N 43°39' W 070°15'1 2.5
2018-Jun-12 16:31N 43°40' W 070°14'3 6.5
2018-Jun-12 16:01N 43°42' W 070°10'2 3.4
2018-Jun-12 15:30N 43°40' W 070°12'3 5.1
2018-Jun-12 15:01N 43°39' W 070°15'0 0.0
2018-Jun-12 14:31N 43°39' W 070°15'0 0.0
2018-Jun-12 14:01N 43°39' W 070°15'0 0.0
2018-Jun-12 13:31N 43°39' W 070°15'2 4.6
2018-Jun-12 13:00N 43°40' W 070°12'1 1.9
2018-Jun-12 12:31N 43°41' W 070°11'2 3.4
2018-Jun-12 12:01N 43°40' W 070°13'2 0.2
2018-Jun-12 03:22N 43°39' W 070°15'1 3.7
2018-Jun-12 03:00N 43°40' W 070°13'1 2.7
2018-Jun-12 02:30N 43°39' W 070°15'0 0.0
2018-Jun-12 02:00N 43°39' W 070°15'2 3.1
2018-Jun-12 01:30N 43°40' W 070°13'1 2.8
2018-Jun-12 01:00N 43°39' W 070°15'2 3.1
2018-Jun-12 00:30N 43°39' W 070°13'2 3.5
2018-Jun-12 00:00N 43°39' W 070°15'2 3.6
2018-Jun-11 23:30N 43°40' W 070°12'2 3.6
2018-Jun-11 23:00N 43°39' W 070°15'0 0.0
2018-Jun-11 22:30N 43°39' W 070°15'  
Track history (hours):
 
Tides and Currents Weather Stations Pressure Air Temp Water Temp Dewpoint Dewpoint Depression Visibility Wind Speed Wind Dir Waves Ship Positions

Wabanaki

Owner: Casco Bay Island Transit District, Portland, ME. More information available from US FCC via Universal Licensing System and Coast Guard Vessel Documentation Center.

Last reported at 2018-Jun-21 22:12 UTC. Time now 2018-Jun-22 16:51 UTC.
Position N 43°40' W 070°14'.

Type: Passenger vessel. MMSI: 367591990.

Date/timePositionNaut miles runAvg speedWind from/ knotsBaromVisibWave heightAir tempDewpointWater temp
2018-Jun-21 22:12N 43°40' W 070°14'2 9.8
2018-Jun-21 22:00N 43°41' W 070°11'1 0.2
2018-Jun-21 17:47N 43°41' W 070°11'3 2.8
2018-Jun-21 16:41N 43°39' W 070°15'2 8.3
2018-Jun-21 16:29N 43°40' W 070°13'3 5.4
2018-Jun-21 16:01N 43°42' W 070°10'1 2.2
2018-Jun-21 15:31N 43°41' W 070°11'3 1.4
2018-Jun-21 13:01N 43°42' W 070°07'0 0.0
2018-Jun-21 12:59N 43°42' W 070°07'2 4.7
2018-Jun-21 12:31N 43°42' W 070°10'3 5.9
2018-Jun-21 12:01N 43°40' W 070°13'2 3.4
2018-Jun-21 11:30N 43°39' W 070°15'0 0.0
2018-Jun-21 11:01N 43°39' W 070°15'3 5.7
2018-Jun-21 10:29N 43°41' W 070°11'1 1.9
2018-Jun-21 10:00N 43°42' W 070°11'4 7.8
2018-Jun-21 09:30N 43°39' W 070°15'0 0.0
2018-Jun-20 21:08N 43°39' W 070°15'0 0.1
2018-Jun-20 20:58N 43°39' W 070°15'2 5.4
2018-Jun-20 20:30N 43°40' W 070°12'0 0.0
2018-Jun-20 19:42N 43°40' W 070°12'1 3.9
2018-Jun-20 19:30N 43°40' W 070°13'2 3.5
2018-Jun-20 19:00N 43°39' W 070°15'0 0.0
2018-Jun-20 16:44N 43°39' W 070°15'2 8.0
2018-Jun-20 16:30N 43°40' W 070°13'3 5.2
2018-Jun-20 16:01N 43°42' W 070°10'1 2.2
2018-Jun-20 15:30N 43°41' W 070°11'3 6.2
2018-Jun-20 15:00N 43°39' W 070°15'0 0.0
2018-Jun-20 14:30N 43°39' W 070°15'2 4.6
2018-Jun-20 14:00N 43°40' W 070°12'3 6.8
2018-Jun-20 13:30N 43°43' W 070°08'1 3.0
2018-Jun-20 13:00N 43°42' W 070°07'2 4.6
2018-Jun-20 12:30N 43°42' W 070°10'3 5.4
2018-Jun-20 12:00N 43°40' W 070°13'2 3.3
2018-Jun-20 11:30N 43°39' W 070°15'0 0.0
2018-Jun-20 04:17N 43°39' W 070°15'2 5.7
2018-Jun-20 04:01N 43°40' W 070°13'2 3.2
2018-Jun-20 03:31N 43°39' W 070°15'1 2.9
2018-Jun-20 03:00N 43°40' W 070°13'1 2.9
2018-Jun-20 02:30N 43°39' W 070°15'0 0.5
2018-Jun-20 02:00N 43°39' W 070°15'1 2.6
2018-Jun-20 01:30N 43°39' W 070°13'2 3.1
2018-Jun-20 01:01N 43°39' W 070°15'2 3.8
2018-Jun-20 00:30N 43°39' W 070°12'2 3.8
2018-Jun-20 00:00N 43°39' W 070°15'2 3.7
2018-Jun-19 23:30N 43°39' W 070°12'2 3.7
2018-Jun-19 23:01N 43°39' W 070°15'0 0.0
2018-Jun-19 22:30N 43°39' W 070°15'0 0.0
2018-Jun-19 22:00N 43°39' W 070°15'0 0.0
2018-Jun-19 21:30N 43°39' W 070°15'0 0.0
2018-Jun-19 21:01N 43°39' W 070°15'3 5.3
2018-Jun-19 20:31N 43°40' W 070°12'1 1.3
2018-Jun-19 20:01N 43°41' W 070°11'2 3.5
2018-Jun-19 19:30N 43°40' W 070°13'2 3.0
2018-Jun-19 19:00N 43°39' W 070°15'2 4.9
2018-Jun-19 18:31N 43°40' W 070°12'1 1.6
2018-Jun-19 18:01N 43°41' W 070°11'2 3.5
2018-Jun-19 17:30N 43°40' W 070°13'1 3.0
2018-Jun-19 17:00N 43°39' W 070°15'2 3.8
2018-Jun-19 16:30N 43°40' W 070°12'2 3.7
2018-Jun-19 16:00N 43°41' W 070°11'1 2.7
2018-Jun-19 15:31N 43°40' W 070°12'2 4.5
2018-Jun-19 15:00N 43°39' W 070°15'0 0.0
2018-Jun-19 14:31N 43°39' W 070°15'2 4.6
2018-Jun-19 14:00N 43°40' W 070°12'3 6.7
2018-Jun-19 13:31N 43°42' W 070°09'2 3.2
2018-Jun-19 13:00N 43°42' W 070°07'2 3.8
2018-Jun-19 12:30N 43°42' W 070°09'3 7.0
2018-Jun-19 12:01N 43°40' W 070°13'2 3.4
2018-Jun-19 11:30N 43°39' W 070°15'0 0.0
2018-Jun-19 04:12N 43°39' W 070°15'1 5.5
2018-Jun-19 04:00N 43°39' W 070°13'1 2.1
2018-Jun-19 03:30N 43°39' W 070°15'2 3.2
2018-Jun-19 03:00N 43°39' W 070°13'2 3.1
2018-Jun-19 02:30N 43°39' W 070°15'0 0.0
2018-Jun-19 02:00N 43°39' W 070°15'2 3.8
2018-Jun-19 01:30N 43°39' W 070°12'2 3.8
2018-Jun-19 01:00N 43°39' W 070°15'2 3.8
2018-Jun-19 00:30N 43°39' W 070°12'2 3.8
2018-Jun-19 00:00N 43°39' W 070°15'1 3.0
2018-Jun-18 23:30N 43°39' W 070°13'1 3.0
2018-Jun-18 23:00N 43°39' W 070°15'0 0.0
2018-Jun-18 21:07N 43°39' W 070°15'0 0.2
2018-Jun-18 21:00N 43°39' W 070°15'2 1.9
2018-Jun-18 19:44N 43°40' W 070°12'1 3.1
2018-Jun-18 19:30N 43°40' W 070°13'2 3.5
2018-Jun-18 19:00N 43°39' W 070°15'2 4.6
2018-Jun-18 18:30N 43°40' W 070°12'1 1.9
2018-Jun-18 18:01N 43°41' W 070°11'2 3.1
2018-Jun-18 17:31N 43°40' W 070°13'2 3.5
2018-Jun-18 17:01N 43°39' W 070°15'0 0.0
2018-Jun-17 21:11N 43°39' W 070°15'0 0.1
2018-Jun-17 21:00N 43°39' W 070°15'2 4.9
2018-Jun-17 20:30N 43°40' W 070°12'1 2.7
2018-Jun-17 20:00N 43°41' W 070°11'2 4.3
2018-Jun-17 19:30N 43°40' W 070°13'2 3.4
2018-Jun-17 19:00N 43°39' W 070°15'2 4.5
2018-Jun-17 18:30N 43°40' W 070°12'2 3.3
2018-Jun-17 18:00N 43°41' W 070°10'2 4.5
2018-Jun-17 17:30N 43°40' W 070°13'2 3.5
2018-Jun-17 17:00N 43°39' W 070°15'2 3.5
2018-Jun-17 16:30N 43°40' W 070°13'3 5.2
2018-Jun-17 16:00N 43°42' W 070°10'1 2.1
2018-Jun-17 15:30N 43°41' W 070°11'3 6.3
2018-Jun-17 15:00N 43°39' W 070°15'0 0.0
2018-Jun-17 14:30N 43°39' W 070°15'0 0.0
2018-Jun-17 14:00N 43°39' W 070°15'0 0.0
2018-Jun-17 13:30N 43°39' W 070°15'0 0.0
2018-Jun-17 13:00N 43°39' W 070°15'4 7.2
2018-Jun-17 12:30N 43°41' W 070°11'3 5.9
2018-Jun-17 12:00N 43°42' W 070°07'2 3.3
2018-Jun-17 11:30N 43°42' W 070°09'3 6.3
2018-Jun-17 11:00N 43°40' W 070°12'2 4.8
2018-Jun-17 10:30N 43°39' W 070°15'0 0.0
2018-Jun-17 01:57N 43°39' W 070°15'2 4.8
2018-Jun-17 01:30N 43°40' W 070°12'2 4.3
2018-Jun-17 01:01N 43°42' W 070°10'1 1.6
2018-Jun-17 00:30N 43°41' W 070°11'2 4.1
2018-Jun-17 00:01N 43°40' W 070°13'2 3.2
2018-Jun-16 23:31N 43°39' W 070°15'0 0.4
2018-Jun-16 23:01N 43°39' W 070°15'3 5.8
2018-Jun-16 22:31N 43°41' W 070°11'2 3.1
2018-Jun-16 22:01N 43°40' W 070°13'2 3.4
2018-Jun-16 21:31N 43°39' W 070°15'4 8.3
2018-Jun-16 21:00N 43°42' W 070°10'2 4.7
2018-Jun-16 20:30N 43°40' W 070°12'2 1.7
2018-Jun-16 19:23N 43°39' W 070°15'2 5.0
2018-Jun-16 19:00N 43°39' W 070°12'2 3.6
2018-Jun-16 18:29N 43°39' W 070°15'0 0.0
2018-Jun-16 18:00N 43°39' W 070°15'0 0.0
2018-Jun-16 13:36N 43°39' W 070°15'0 0.2
2018-Jun-16 13:30N 43°39' W 070°15'2 4.5
2018-Jun-16 13:00N 43°40' W 070°12'2 4.0
2018-Jun-16 12:30N 43°42' W 070°10'2 4.7
2018-Jun-16 12:00N 43°42' W 070°07'2 4.4
2018-Jun-16 11:30N 43°42' W 070°10'2 4.4
2018-Jun-16 11:00N 43°40' W 070°12'3 5.0
2018-Jun-16 10:30N 43°39' W 070°15'0 0.0
2018-Jun-16 02:53N 43°39' W 070°15'2 4.5
2018-Jun-16 02:30N 43°40' W 070°13'2 4.8
2018-Jun-16 02:01N 43°41' W 070°10'1 1.6
2018-Jun-16 01:31N 43°41' W 070°11'3 6.3
2018-Jun-16 01:01N 43°39' W 070°15'3 5.5
2018-Jun-16 00:30N 43°41' W 070°11'1 2.9
2018-Jun-16 00:01N 43°42' W 070°10'3 5.1
2018-Jun-15 23:30N 43°40' W 070°13'2 3.4
2018-Jun-15 23:00N 43°39' W 070°15'3 6.0
2018-Jun-15 22:31N 43°41' W 070°11'2 3.2
2018-Jun-15 22:01N 43°40' W 070°13'1 2.9
2018-Jun-15 21:30N 43°39' W 070°15'4 8.0
2018-Jun-15 21:01N 43°42' W 070°10'2 4.4
2018-Jun-15 20:30N 43°40' W 070°12'2 4.2
2018-Jun-15 20:00N 43°39' W 070°15'0 0.0
2018-Jun-15 19:30N 43°39' W 070°15'0 0.0
2018-Jun-15 19:00N 43°39' W 070°15'0 0.0
2018-Jun-15 18:30N 43°39' W 070°15'0 0.0
2018-Jun-15 18:01N 43°39' W 070°15'1 1.0
2018-Jun-15 17:31N 43°40' W 070°14'2 3.3
2018-Jun-15 17:00N 43°39' W 070°12'0 0.0
2018-Jun-15 16:31N 43°39' W 070°12'0 0.0
2018-Jun-15 16:01N 43°39' W 070°12'2 3.4
2018-Jun-15 15:31N 43°38' W 070°12'2 4.7
2018-Jun-15 15:01N 43°39' W 070°15'0 0.6
2018-Jun-15 14:30N 43°39' W 070°15'0 0.3
2018-Jun-15 14:00N 43°39' W 070°15'0 0.0
2018-Jun-15 02:09N 43°39' W 070°15'0 0.1
2018-Jun-15 02:00N 43°39' W 070°15'0 0.0
2018-Jun-15 01:30N 43°39' W 070°15'1 2.5
2018-Jun-15 01:00N 43°39' W 070°16'2 3.3
2018-Jun-15 00:30N 43°40' W 070°14'3 5.6
2018-Jun-15 00:00N 43°41' W 070°11'2 4.8
2018-Jun-14 23:30N 43°39' W 070°12'1 1.5
2018-Jun-14 23:00N 43°39' W 070°13'2 3.2
2018-Jun-14 22:30N 43°39' W 070°15'0 0.0
2018-Jun-14 22:00N 43°39' W 070°15'0 0.0
2018-Jun-14 21:30N 43°39' W 070°15'0 0.0
2018-Jun-14 21:00N 43°39' W 070°15'0 0.0
2018-Jun-14 20:30N 43°39' W 070°15'0 0.0
2018-Jun-14 20:00N 43°39' W 070°15'0 0.0
2018-Jun-14 19:30N 43°39' W 070°15'0 0.0
2018-Jun-14 19:00N 43°39' W 070°15'0 0.0
2018-Jun-14 18:30N 43°39' W 070°15'0 0.0
2018-Jun-14 18:00N 43°39' W 070°15'0 0.0
2018-Jun-14 17:30N 43°39' W 070°15'0 0.0
2018-Jun-14 17:00N 43°39' W 070°15'1 2.4
2018-Jun-14 16:30N 43°40' W 070°13'3 6.2
2018-Jun-14 16:00N 43°42' W 070°10'1 2.2
2018-Jun-14 15:30N 43°41' W 070°11'3 6.2
2018-Jun-14 15:00N 43°39' W 070°15'0 0.0
2018-Jun-14 14:30N 43°39' W 070°15'0 0.0
2018-Jun-14 14:00N 43°39' W 070°15'0 0.0
2018-Jun-14 13:30N 43°39' W 070°15'2 4.5
2018-Jun-14 13:00N 43°40' W 070°12'1 2.5
2018-Jun-14 12:30N 43°41' W 070°11'2 3.7
2018-Jun-14 12:00N 43°40' W 070°13'2 3.4
2018-Jun-14 11:30N 43°39' W 070°15'2 4.1
2018-Jun-14 11:00N 43°39' W 070°12'2 4.0
2018-Jun-14 10:30N 43°39' W 070°15'2 3.9
2018-Jun-14 10:00N 43°39' W 070°12'2 0.3
2018-Jun-14 03:13N 43°39' W 070°15'1 5.5
2018-Jun-14 03:00N 43°40' W 070°13'1 2.3
2018-Jun-14 02:30N 43°39' W 070°15'0 0.0
2018-Jun-14 02:00N 43°39' W 070°15'2 4.0
2018-Jun-14 01:30N 43°39' W 070°12'2 3.4
2018-Jun-14 01:00N 43°40' W 070°14'1 2.2
2018-Jun-14 00:30N 43°39' W 070°13'1 2.9
2018-Jun-14 00:00N 43°39' W 070°15'2 3.5
2018-Jun-13 23:30N 43°39' W 070°12'2 3.5
2018-Jun-13 23:00N 43°39' W 070°15'0 0.0
2018-Jun-13 02:49N 43°39' W 070°15'2 5.3
2018-Jun-13 02:30N 43°40' W 070°13'3 5.5
2018-Jun-13 02:00N 43°42' W 070°10'1 2.0
2018-Jun-13 01:30N 43°41' W 070°11'3 6.6
2018-Jun-13 01:00N 43°39' W 070°15'2 3.3
2018-Jun-13 00:30N 43°40' W 070°13'3 5.4
2018-Jun-13 00:00N 43°42' W 070°10'3 5.0
2018-Jun-12 23:30N 43°40' W 070°12'2 3.6
2018-Jun-12 23:00N 43°39' W 070°15'3 6.0
2018-Jun-12 22:31N 43°41' W 070°11'2 3.5
2018-Jun-12 22:00N 43°40' W 070°13'0 0.1
2018-Jun-12 21:30N 43°40' W 070°13'3 5.7
2018-Jun-12 21:00N 43°42' W 070°10'2 4.4
2018-Jun-12 20:30N 43°40' W 070°12'2 4.2
2018-Jun-12 20:00N 43°39' W 070°15'0 0.0
2018-Jun-12 16:55N 43°39' W 070°15'1 2.5
2018-Jun-12 16:31N 43°40' W 070°14'3 6.5
2018-Jun-12 16:01N 43°42' W 070°10'2 3.4
2018-Jun-12 15:30N 43°40' W 070°12'3 5.1
2018-Jun-12 15:01N 43°39' W 070°15'0 0.0
2018-Jun-12 14:31N 43°39' W 070°15'0 0.0
2018-Jun-12 14:01N 43°39' W 070°15'0 0.0
2018-Jun-12 13:31N 43°39' W 070°15'2 4.6
2018-Jun-12 13:00N 43°40' W 070°12'1 1.9
2018-Jun-12 12:31N 43°41' W 070°11'2 3.4
2018-Jun-12 12:01N 43°40' W 070°13'2 0.2
2018-Jun-12 03:22N 43°39' W 070°15'1 3.7
2018-Jun-12 03:00N 43°40' W 070°13'1 2.7
2018-Jun-12 02:30N 43°39' W 070°15'0 0.0
2018-Jun-12 02:00N 43°39' W 070°15'2 3.1
2018-Jun-12 01:30N 43°40' W 070°13'1 2.8
2018-Jun-12 01:00N 43°39' W 070°15'2 3.1
2018-Jun-12 00:30N 43°39' W 070°13'2 3.5
2018-Jun-12 00:00N 43°39' W 070°15'2 3.6
2018-Jun-11 23:30N 43°40' W 070°12'2 3.6
2018-Jun-11 23:00N 43°39' W 070°15'0 0.0
2018-Jun-11 22:30N 43°39' W 070°15'  

Dump ship's entire track history